createdAt,value
2023-05-15T00:01:28.563Z,8.13
2023-05-15T00:03:56.552Z,8.13
2023-05-15T00:06:24.606Z,8.23
2023-05-15T00:08:52.518Z,8.17
2023-05-15T00:11:21.365Z,7.90
2023-05-15T00:13:49.352Z,8.17
2023-05-15T00:16:19.073Z,7.83
2023-05-15T00:18:47.147Z,7.77
2023-05-15T00:21:15.193Z,7.70
2023-05-15T00:23:43.249Z,7.23
2023-05-15T00:26:11.254Z,8.10
2023-05-15T00:28:39.189Z,7.43
2023-05-15T00:31:08.671Z,7.60
2023-05-15T00:33:38.081Z,6.83
2023-05-15T00:36:06.773Z,6.80
2023-05-15T00:38:35.074Z,7.10
2023-05-15T00:41:03.494Z,7.73
2023-05-15T00:43:32.016Z,6.80
2023-05-15T00:46:00.921Z,7.27
2023-05-15T00:48:30.572Z,7.57
2023-05-15T00:51:01.015Z,7.37
2023-05-15T00:53:29.229Z,7.83
2023-05-15T00:55:59.546Z,8.07
2023-05-15T00:58:28.765Z,6.97
2023-05-15T01:00:57.101Z,7.50
2023-05-15T01:03:25.260Z,7.40
2023-05-15T01:05:53.417Z,7.77
2023-05-15T01:08:28.028Z,8.67
2023-05-15T01:10:57.659Z,9.10
2023-05-15T01:13:25.992Z,9.33
2023-05-15T01:15:55.773Z,9.97
2023-05-15T01:18:23.730Z,9.83
2023-05-15T01:21:08.264Z,10.53
2023-05-15T01:23:53.638Z,10.43
2023-05-15T01:26:50.081Z,10.53
2023-05-15T01:29:25.586Z,11.13
2023-05-15T01:31:58.523Z,12.23
2023-05-15T01:34:44.075Z,12.30
2023-05-15T01:37:14.400Z,12.50
2023-05-15T01:39:46.032Z,13.27
2023-05-15T01:42:17.899Z,13.17
2023-05-15T01:44:53.581Z,13.67
2023-05-15T01:47:27.410Z,13.93
2023-05-15T01:49:59.589Z,12.83
2023-05-15T01:52:33.702Z,13.13
2023-05-15T01:55:03.778Z,13.27
2023-05-15T01:57:32.818Z,11.90
2023-05-15T02:00:03.932Z,11.73
2023-05-15T02:02:32.736Z,11.63
2023-05-15T02:05:01.949Z,11.60
2023-05-15T02:07:32.364Z,11.83
2023-05-15T02:10:01.048Z,11.70
2023-05-15T02:12:29.810Z,11.10
2023-05-15T02:15:02.811Z,11.03
2023-05-15T02:17:31.071Z,11.53
2023-05-15T02:19:59.215Z,11.27
2023-05-15T02:22:27.685Z,10.87
2023-05-15T02:24:55.849Z,11.60
2023-05-15T02:27:27.803Z,10.97
2023-05-15T02:30:17.636Z,10.67
2023-05-15T02:32:52.079Z,11.00
2023-05-15T02:35:28.018Z,11.33
2023-05-15T02:38:01.721Z,10.87
2023-05-15T02:40:31.309Z,11.17
2023-05-15T02:43:00.139Z,11.23
2023-05-15T02:45:30.292Z,11.20
2023-05-15T02:47:58.738Z,10.50
2023-05-15T02:50:27.206Z,10.47
2023-05-15T02:53:03.469Z,11.07
2023-05-15T02:55:31.579Z,10.50
2023-05-15T02:58:00.650Z,10.20
2023-05-15T03:00:30.073Z,9.87
2023-05-15T03:02:58.372Z,9.90
2023-05-15T03:05:26.900Z,10.00
2023-05-15T03:07:55.908Z,10.37
2023-05-15T03:10:24.321Z,10.00
2023-05-15T03:12:52.457Z,9.10
2023-05-15T03:15:21.363Z,9.30
2023-05-15T03:17:50.973Z,8.97
2023-05-15T03:20:19.324Z,9.10
2023-05-15T03:22:47.493Z,8.77
2023-05-15T03:25:15.619Z,9.33
2023-05-15T03:27:43.677Z,10.67
2023-05-15T03:30:12.430Z,10.33
2023-05-15T03:32:40.838Z,9.87
2023-05-15T03:35:11.339Z,11.03
2023-05-15T03:37:39.367Z,11.90
2023-05-15T03:40:09.049Z,12.23
2023-05-15T03:42:36.986Z,12.37
2023-05-15T03:45:05.543Z,11.77
2023-05-15T03:47:33.650Z,11.77
2023-05-15T03:50:01.703Z,11.43
2023-05-15T03:52:32.126Z,12.23
2023-05-15T03:55:00.417Z,11.33
2023-05-15T03:57:28.734Z,10.40
2023-05-15T03:59:56.679Z,10.97
2023-05-15T04:02:24.773Z,10.83
2023-05-15T04:04:53.298Z,10.33
2023-05-15T04:07:21.353Z,11.00
2023-05-15T04:09:50.798Z,10.60
2023-05-15T04:12:18.754Z,11.90
2023-05-15T04:14:46.769Z,11.70
2023-05-15T04:17:14.763Z,12.13
2023-05-15T04:19:43.213Z,12.53
2023-05-15T04:22:11.176Z,12.47
2023-05-15T04:24:39.209Z,10.97
2023-05-15T04:27:09.054Z,10.67
2023-05-15T04:29:37.001Z,10.70
2023-05-15T04:32:05.409Z,9.63
2023-05-15T04:34:33.682Z,9.57
2023-05-15T04:37:01.756Z,8.57
2023-05-15T04:39:29.672Z,8.97
2023-05-15T04:41:57.610Z,6.80
2023-05-15T04:44:26.994Z,6.93
2023-05-15T04:46:54.981Z,6.33
2023-05-15T04:49:22.953Z,5.90
2023-05-15T04:51:50.870Z,6.07
2023-05-15T04:54:18.829Z,6.17
2023-05-15T04:56:47.267Z,5.97
2023-05-15T04:59:15.909Z,5.53
2023-05-15T05:01:46.087Z,5.50
2023-05-15T05:04:14.693Z,5.87
2023-05-15T05:06:42.748Z,6.37
2023-05-15T05:09:10.889Z,6.87
2023-05-15T05:11:43.481Z,7.43
2023-05-15T05:14:11.453Z,7.90
2023-05-15T05:16:39.511Z,8.60
2023-05-15T05:19:09.127Z,9.60
2023-05-15T05:21:37.216Z,9.63
2023-05-15T05:24:05.276Z,9.47
2023-05-15T05:26:33.205Z,9.57
2023-05-15T05:29:01.213Z,9.73
2023-05-15T05:31:29.171Z,10.60
2023-05-15T05:33:57.146Z,10.80
2023-05-15T05:36:26.542Z,9.80
2023-05-15T05:38:54.514Z,10.43
2023-05-15T05:41:22.654Z,9.47
2023-05-15T05:43:50.632Z,10.23
2023-05-15T05:46:19.304Z,9.93
2023-05-15T05:48:47.285Z,9.87
2023-05-15T05:51:15.662Z,9.93
2023-05-15T05:53:45.039Z,9.00
2023-05-15T05:56:13.086Z,8.70
2023-05-15T05:58:41.097Z,8.70
2023-05-15T06:01:09.113Z,9.37
2023-05-15T06:03:37.678Z,8.87
2023-05-15T06:06:06.489Z,9.60
2023-05-15T06:08:34.466Z,8.17
2023-05-15T06:11:03.866Z,8.37
2023-05-15T06:13:31.926Z,9.20
2023-05-15T06:15:59.847Z,8.40
2023-05-15T06:18:27.857Z,9.27
2023-05-15T06:20:55.924Z,8.90
2023-05-15T06:23:24.461Z,8.53
2023-05-15T06:25:52.564Z,8.60
2023-05-15T06:28:22.115Z,8.00
2023-05-15T06:30:50.094Z,9.30
2023-05-15T06:33:18.059Z,8.77
2023-05-15T06:35:46.202Z,8.67
2023-05-15T06:38:14.273Z,8.63
2023-05-15T06:40:42.195Z,8.47
2023-05-15T06:43:10.157Z,8.90
2023-05-15T06:45:42.298Z,8.37
2023-05-15T06:48:10.363Z,8.97
2023-05-15T06:50:38.462Z,8.57
2023-05-15T06:53:06.486Z,10.57
2023-05-15T06:55:36.596Z,9.37
2023-05-15T06:58:04.583Z,10.03
2023-05-15T07:00:32.828Z,9.83
2023-05-15T07:03:02.238Z,10.47
2023-05-15T07:05:30.767Z,10.63
2023-05-15T07:07:58.725Z,10.27
2023-05-15T07:10:26.922Z,10.73
2023-05-15T07:12:55.265Z,11.23
2023-05-15T07:15:23.310Z,10.43
2023-05-15T07:17:56.521Z,11.87
2023-05-15T07:20:30.285Z,11.97
2023-05-15T07:22:59.374Z,12.07
2023-05-15T07:25:27.735Z,11.17
2023-05-15T07:27:55.972Z,11.40
2023-05-15T07:30:24.512Z,13.03
2023-05-15T07:32:52.799Z,12.60
2023-05-15T07:35:22.268Z,12.00
2023-05-15T07:37:51.743Z,13.23
2023-05-15T07:40:20.189Z,12.90
2023-05-15T07:42:48.167Z,12.53
2023-05-15T07:45:16.841Z,13.47
2023-05-15T07:47:47.018Z,11.80
2023-05-15T07:50:17.739Z,12.37
2023-05-15T07:52:45.814Z,11.80
2023-05-15T07:55:15.270Z,12.43
2023-05-15T07:57:44.166Z,12.33
2023-05-15T08:00:13.608Z,12.10
2023-05-15T08:02:46.525Z,12.40
2023-05-15T08:05:14.961Z,11.70
2023-05-15T08:07:45.405Z,11.93
2023-05-15T08:10:15.632Z,11.50
2023-05-15T08:12:47.306Z,12.83
2023-05-15T08:15:16.574Z,12.20
2023-05-15T08:17:46.233Z,11.20
2023-05-15T08:20:15.268Z,12.97
2023-05-15T08:22:43.408Z,17.37
2023-05-15T08:25:11.592Z,12.63
2023-05-15T08:27:41.753Z,12.43
2023-05-15T08:30:14.105Z,12.03
2023-05-15T08:32:43.038Z,11.93
2023-05-15T08:35:12.026Z,12.73
2023-05-15T08:37:39.974Z,12.00
2023-05-15T08:40:10.741Z,12.70
2023-05-15T08:42:46.091Z,12.23
2023-05-15T08:45:14.915Z,11.77
2023-05-15T08:47:44.154Z,12.00
2023-05-15T08:50:14.598Z,12.40
2023-05-15T08:52:43.822Z,12.50
2023-05-15T08:55:12.547Z,12.27
2023-05-15T08:57:42.200Z,12.40
2023-05-15T09:00:14.999Z,13.30
2023-05-15T09:02:44.079Z,14.40
2023-05-15T09:05:12.329Z,13.67
2023-05-15T09:07:41.750Z,13.17
2023-05-15T09:10:11.439Z,13.23
2023-05-15T09:12:44.792Z,13.10
2023-05-15T09:15:16.020Z,13.40
2023-05-15T09:17:44.577Z,13.80
2023-05-15T09:20:27.887Z,14.37
2023-05-15T09:22:56.004Z,16.27
2023-05-15T09:25:38.731Z,16.27
2023-05-15T09:28:10.623Z,16.47
2023-05-15T09:30:39.576Z,14.90
2023-05-15T09:33:08.336Z,15.83
2023-05-15T09:35:38.526Z,14.60
2023-05-15T09:38:12.509Z,14.87
2023-05-15T09:40:42.087Z,15.17
2023-05-15T09:43:13.032Z,15.83
2023-05-15T09:45:41.851Z,16.07
2023-05-15T09:48:11.921Z,16.10
2023-05-15T09:50:43.167Z,16.40
2023-05-15T09:53:14.014Z,15.97
2023-05-15T09:55:43.669Z,16.93
2023-05-15T09:58:14.879Z,17.27
2023-05-15T10:00:47.530Z,18.70
2023-05-15T10:03:18.239Z,17.10
2023-05-15T10:05:46.671Z,17.43
2023-05-15T10:08:16.038Z,17.57
2023-05-15T10:10:47.020Z,17.33
2023-05-15T10:13:16.658Z,17.17
2023-05-15T10:15:50.031Z,17.10
2023-05-15T10:18:20.252Z,16.93
2023-05-15T10:20:48.695Z,16.43
2023-05-15T10:23:18.936Z,16.30
2023-05-15T10:25:56.119Z,17.43
2023-05-15T10:28:32.203Z,17.50
2023-05-15T10:31:02.625Z,17.83
2023-05-15T10:33:31.254Z,16.30
2023-05-15T10:36:02.129Z,15.67
2023-05-15T10:38:31.677Z,16.00
2023-05-15T10:41:15.669Z,15.83
2023-05-15T10:43:47.809Z,15.60
2023-05-15T10:46:17.266Z,16.03
2023-05-15T10:48:46.541Z,15.13
2023-05-15T10:51:18.700Z,15.23
2023-05-15T10:53:47.212Z,14.70
2023-05-15T10:56:16.748Z,15.63
2023-05-15T10:58:50.822Z,14.87
2023-05-15T11:01:32.952Z,16.27
2023-05-15T11:04:09.606Z,15.70
2023-05-15T11:06:38.415Z,15.70
2023-05-15T11:09:36.027Z,14.13
2023-05-15T11:12:05.752Z,13.80
2023-05-15T11:14:37.652Z,13.43
2023-05-15T11:17:08.135Z,13.13
2023-05-15T11:19:55.434Z,13.47
2023-05-15T11:22:28.578Z,12.63
2023-05-15T11:25:00.694Z,12.40
2023-05-15T11:27:32.131Z,12.67
2023-05-15T11:30:17.945Z,12.53
2023-05-15T11:32:55.813Z,12.03
2023-05-15T11:35:26.084Z,23.40
2023-05-15T11:37:57.095Z,15.50
2023-05-15T11:40:28.519Z,12.83
2023-05-15T11:43:05.672Z,12.53
2023-05-15T11:45:36.817Z,11.83
2023-05-15T11:48:07.028Z,12.77
2023-05-15T11:50:36.311Z,11.83
2023-05-15T11:53:05.734Z,12.13
2023-05-15T11:55:35.718Z,12.47
2023-05-15T11:58:04.306Z,12.60
2023-05-15T12:00:34.068Z,12.70
2023-05-15T12:03:03.845Z,11.73
2023-05-15T12:05:32.047Z,12.93
2023-05-15T12:08:00.129Z,12.40
2023-05-15T12:10:28.481Z,12.20
2023-05-15T12:12:56.837Z,11.67
2023-05-15T12:15:24.944Z,12.73
2023-05-15T12:17:54.439Z,11.73
2023-05-15T12:20:22.972Z,12.40
2023-05-15T12:22:51.180Z,11.80
2023-05-15T12:25:19.620Z,11.50
2023-05-15T12:27:48.098Z,11.77
2023-05-15T12:30:16.720Z,11.77
2023-05-15T12:32:45.324Z,11.00
2023-05-15T12:35:14.928Z,11.17
2023-05-15T12:37:43.549Z,11.33
2023-05-15T12:40:12.623Z,10.33
2023-05-15T12:42:42.185Z,10.27
2023-05-15T12:45:20.417Z,9.87
2023-05-15T12:47:50.749Z,10.43
2023-05-15T12:50:22.959Z,8.90
2023-05-15T12:52:55.425Z,9.60
2023-05-15T12:55:28.115Z,9.20
2023-05-15T12:57:58.755Z,9.70
2023-05-15T13:00:27.351Z,9.83
2023-05-15T13:02:57.551Z,8.60
2023-05-15T13:05:28.218Z,8.70
2023-05-15T13:07:56.659Z,9.30
2023-05-15T13:10:26.447Z,9.70
2023-05-15T13:12:56.789Z,8.90
2023-05-15T13:15:30.115Z,8.77
2023-05-15T13:18:02.425Z,10.50
2023-05-15T13:20:34.658Z,9.43
2023-05-15T13:23:03.268Z,10.37
2023-05-15T13:25:32.433Z,9.17
2023-05-15T13:28:02.169Z,8.73
2023-05-15T13:30:30.754Z,8.60
2023-05-15T13:32:59.150Z,9.30
2023-05-15T13:35:27.664Z,9.63
2023-05-15T13:37:57.683Z,9.40
2023-05-15T13:40:26.045Z,9.83
2023-05-15T13:42:54.606Z,9.40
2023-05-15T13:45:22.689Z,9.43
2023-05-15T13:47:51.853Z,10.03
2023-05-15T13:50:19.877Z,10.00
2023-05-15T13:52:48.301Z,11.53
2023-05-15T13:55:18.346Z,10.10
2023-05-15T13:57:47.307Z,10.50
2023-05-15T14:00:16.292Z,9.90
2023-05-15T14:02:45.554Z,9.00
2023-05-15T14:05:15.901Z,7.87
2023-05-15T14:07:43.838Z,6.63
2023-05-15T14:10:15.060Z,6.83
2023-05-15T14:12:44.456Z,5.70
2023-05-15T14:15:13.367Z,5.00
2023-05-15T14:17:41.754Z,4.17
2023-05-15T14:20:13.326Z,4.27
2023-05-15T14:22:42.064Z,4.17
2023-05-15T14:25:11.313Z,4.10
2023-05-15T14:27:39.566Z,3.87
2023-05-15T14:30:10.487Z,3.83
2023-05-15T14:32:38.539Z,3.93
2023-05-15T14:35:07.335Z,3.90
2023-05-15T14:37:38.259Z,3.83
2023-05-15T14:40:08.438Z,4.27
2023-05-15T14:42:37.330Z,3.97
2023-05-15T14:45:06.098Z,3.17
2023-05-15T14:47:37.574Z,3.03
2023-05-15T14:50:07.626Z,3.17
2023-05-15T14:52:36.509Z,3.10
2023-05-15T14:55:09.707Z,2.50
2023-05-15T14:57:40.246Z,3.20
2023-05-15T15:00:10.064Z,4.40
2023-05-15T15:02:42.072Z,2.80
2023-05-15T15:05:11.376Z,2.53
2023-05-15T15:08:01.834Z,2.77
2023-05-15T15:10:31.228Z,2.40
2023-05-15T15:13:00.532Z,2.20
2023-05-15T15:15:31.242Z,2.80
2023-05-15T15:18:01.545Z,2.10
2023-05-15T15:20:30.335Z,2.30
2023-05-15T15:22:58.331Z,2.40
2023-05-15T15:25:26.672Z,2.13
2023-05-15T15:27:54.747Z,2.20
2023-05-15T15:30:23.458Z,2.20
2023-05-15T15:32:51.681Z,2.67
2023-05-15T15:35:21.942Z,2.50
2023-05-15T15:37:53.229Z,2.80
2023-05-15T15:40:23.729Z,3.00
2023-05-15T15:42:52.075Z,2.70
2023-05-15T15:45:20.177Z,2.77
2023-05-15T15:47:48.338Z,2.37
2023-05-15T15:50:16.580Z,2.20
2023-05-15T15:52:46.743Z,2.47
2023-05-15T15:55:14.834Z,2.30
2023-05-15T15:57:43.036Z,2.20
2023-05-15T16:00:13.670Z,2.30
2023-05-15T16:02:42.152Z,2.23
2023-05-15T16:05:12.990Z,2.30
2023-05-15T16:07:42.826Z,2.13
2023-05-15T16:10:13.523Z,2.60
2023-05-15T16:12:43.117Z,2.50
2023-05-15T16:17:42.961Z,2.20
2023-05-15T16:20:11.457Z,1.90
2023-05-15T16:22:41.657Z,2.17
2023-05-15T16:25:10.921Z,2.00
2023-05-15T16:27:40.536Z,2.00
2023-05-15T16:30:11.512Z,2.23
2023-05-15T16:32:40.447Z,2.23
2023-05-15T16:35:09.584Z,3.07
2023-05-15T16:37:37.595Z,2.87
2023-05-15T16:40:08.510Z,2.60
2023-05-15T16:42:38.052Z,2.60
2023-05-15T16:45:09.232Z,2.47
2023-05-15T16:47:40.937Z,2.90
2023-05-15T16:50:09.926Z,3.00
2023-05-15T16:52:39.292Z,4.00
2023-05-15T16:55:08.233Z,2.53
2023-05-15T16:57:36.263Z,3.40
2023-05-15T17:00:04.978Z,2.57
2023-05-15T17:02:34.452Z,2.33
2023-05-15T17:05:04.268Z,2.00
2023-05-15T17:07:33.635Z,2.30
2023-05-15T17:10:01.734Z,2.63
2023-05-15T17:12:29.717Z,2.57
2023-05-15T17:14:57.782Z,3.60
2023-05-15T17:17:26.394Z,2.50
2023-05-15T17:19:56.313Z,2.60
2023-05-15T17:22:25.091Z,2.40
2023-05-15T17:24:53.096Z,2.10
2023-05-15T17:27:21.276Z,2.20
2023-05-15T17:29:49.788Z,2.00
2023-05-15T17:32:18.566Z,2.80
2023-05-15T17:34:47.510Z,2.70
2023-05-15T17:37:16.917Z,2.23
2023-05-15T17:39:44.890Z,2.83
2023-05-15T17:42:12.944Z,2.73
2023-05-15T17:44:40.901Z,2.40
2023-05-15T17:47:10.105Z,1.90
2023-05-15T17:49:39.531Z,2.27
2023-05-15T17:52:07.941Z,1.70
2023-05-15T17:54:37.741Z,2.40
2023-05-15T17:57:06.463Z,2.87
2023-05-15T17:59:34.448Z,2.13
2023-05-15T18:02:02.820Z,1.17
2023-05-15T18:04:30.883Z,1.50
2023-05-15T18:06:58.868Z,0.90
2023-05-15T18:09:27.178Z,1.40
2023-05-15T18:11:57.129Z,1.10
2023-05-15T18:14:25.208Z,1.80
2023-05-15T18:16:54.269Z,1.50
2023-05-15T18:19:22.808Z,1.20
2023-05-15T18:21:52.731Z,1.90
2023-05-15T18:24:21.995Z,1.40
2023-05-15T18:26:49.928Z,1.07
2023-05-15T18:29:19.284Z,1.13
2023-05-15T18:31:47.304Z,0.97
2023-05-15T18:34:15.513Z,1.10
2023-05-15T18:36:43.758Z,1.07
2023-05-15T18:39:15.602Z,0.80
2023-05-15T18:41:43.787Z,0.33
2023-05-15T18:44:11.885Z,0.50
2023-05-15T18:46:41.246Z,0.57
2023-05-15T18:49:09.383Z,0.40
2023-05-15T18:51:40.420Z,0.47
2023-05-15T18:54:08.534Z,0.60
2023-05-15T18:56:37.287Z,0.73
2023-05-15T18:59:05.714Z,1.00
2023-05-15T19:01:34.121Z,0.80
2023-05-15T19:04:06.514Z,1.03
2023-05-15T19:06:34.801Z,1.10
2023-05-15T19:09:03.292Z,1.13
2023-05-15T19:11:32.868Z,1.17
2023-05-15T19:14:01.630Z,0.90
2023-05-15T19:16:30.962Z,1.10
2023-05-15T19:18:59.619Z,1.03
2023-05-15T19:21:29.669Z,0.93
2023-05-15T19:23:57.792Z,1.10
2023-05-15T19:26:32.072Z,1.23
2023-05-15T19:29:00.489Z,1.40
2023-05-15T19:31:32.037Z,1.57
2023-05-15T19:34:00.795Z,1.50
2023-05-15T19:36:30.202Z,1.40
2023-05-15T19:38:58.194Z,1.30
2023-05-15T19:41:26.323Z,1.37
2023-05-15T19:43:54.842Z,1.60
2023-05-15T19:46:23.007Z,1.93
2023-05-15T19:48:50.989Z,1.27
2023-05-15T19:51:21.509Z,1.80
2023-05-15T19:53:52.717Z,1.57
2023-05-15T19:56:22.777Z,1.33
2023-05-15T19:58:50.811Z,1.83
2023-05-15T20:01:18.969Z,1.50
2023-05-15T20:03:47.573Z,1.77
2023-05-15T20:06:15.570Z,1.60
2023-05-15T20:08:45.057Z,1.50
2023-05-15T20:11:15.612Z,1.70
2023-05-15T20:13:43.664Z,1.33
2023-05-15T20:16:12.789Z,1.60
2023-05-15T20:18:42.013Z,1.37
2023-05-15T20:21:10.043Z,1.47
2023-05-15T20:23:37.995Z,1.63
2023-05-15T20:26:05.976Z,1.77
2023-05-15T20:28:35.305Z,1.93
2023-05-15T20:31:03.326Z,2.33
2023-05-15T20:33:31.384Z,2.00
2023-05-15T20:36:00.216Z,1.97
2023-05-15T20:38:28.383Z,1.90
2023-05-15T20:40:56.749Z,1.80
2023-05-15T20:43:24.961Z,1.93
2023-05-15T20:45:54.458Z,2.27
2023-05-15T20:48:22.586Z,1.70
2023-05-15T20:50:53.008Z,1.97
2023-05-15T20:53:22.019Z,2.20
2023-05-15T20:55:50.022Z,2.40
2023-05-15T20:58:18.028Z,2.50
2023-05-15T21:00:45.992Z,2.70
2023-05-15T21:03:16.632Z,2.40
2023-05-15T21:05:44.732Z,2.97
2023-05-15T21:08:12.839Z,1.80
2023-05-15T21:10:43.208Z,1.93
2023-05-15T21:13:15.499Z,1.90
2023-05-15T21:15:44.023Z,2.20
2023-05-15T21:18:12.699Z,1.90
2023-05-15T21:20:42.431Z,2.00
2023-05-15T21:23:10.497Z,2.10
2023-05-15T21:25:38.704Z,1.80
2023-05-15T21:28:07.660Z,2.07
2023-05-15T21:30:35.730Z,1.93
2023-05-15T21:33:03.842Z,1.80
2023-05-15T21:35:31.939Z,2.77
2023-05-15T21:38:01.559Z,2.23
2023-05-15T21:40:35.182Z,2.00
2023-05-15T21:43:03.186Z,2.83
2023-05-15T21:45:31.302Z,1.97
2023-05-15T21:47:59.371Z,2.30
2023-05-15T21:50:27.661Z,1.80
2023-05-15T21:52:55.921Z,2.40
2023-05-15T21:55:25.268Z,2.33
2023-05-15T21:57:53.569Z,1.80
2023-05-15T22:00:21.953Z,1.87
2023-05-15T22:02:50.058Z,2.40
2023-05-15T22:05:19.153Z,2.37
2023-05-15T22:07:47.859Z,1.90
2023-05-15T22:10:16.652Z,2.20
2023-05-15T22:12:46.955Z,2.00
2023-05-15T22:15:16.740Z,2.80
2023-05-15T22:17:45.180Z,2.40
2023-05-15T22:20:14.106Z,2.40
2023-05-15T22:22:43.981Z,1.93
2023-05-15T22:25:12.090Z,2.60
2023-05-15T22:27:40.398Z,2.17
2023-05-15T22:30:10.749Z,2.27
2023-05-15T22:32:38.802Z,1.93
2023-05-15T22:35:08.279Z,1.90
2023-05-15T22:37:36.688Z,1.77
2023-05-15T22:40:07.575Z,1.90
2023-05-15T22:42:35.957Z,2.03
2023-05-15T22:45:05.999Z,1.90
2023-05-15T22:47:35.445Z,1.93
2023-05-15T22:50:03.477Z,1.83
2023-05-15T22:52:32.094Z,2.30
2023-05-15T22:55:00.125Z,2.23
2023-05-15T22:57:29.285Z,2.10
2023-05-15T22:59:57.275Z,2.10
2023-05-15T23:02:25.370Z,2.10
2023-05-15T23:04:54.747Z,2.20
2023-05-15T23:07:22.761Z,1.63
2023-05-15T23:09:51.568Z,2.20
2023-05-15T23:12:19.626Z,1.63
2023-05-15T23:14:47.595Z,1.73
2023-05-15T23:17:16.021Z,1.40
2023-05-15T23:19:46.664Z,2.00
2023-05-15T23:22:16.026Z,1.90
2023-05-15T23:24:44.044Z,2.33
2023-05-15T23:27:12.004Z,2.03
2023-05-15T23:29:40.030Z,1.90
2023-05-15T23:32:08.928Z,1.97
2023-05-15T23:34:36.931Z,1.90
2023-05-15T23:37:05.218Z,2.27
2023-05-15T23:39:36.145Z,1.83
2023-05-15T23:42:04.201Z,2.20
2023-05-15T23:44:32.538Z,2.10
2023-05-15T23:47:00.539Z,1.90
2023-05-15T23:49:28.699Z,1.50
2023-05-15T23:51:56.698Z,1.70
2023-05-15T23:54:24.721Z,1.97
2023-05-15T23:57:02.271Z,1.87
2023-05-15T23:59:30.994Z,1.73
